createdAt,value
2023-03-20T00:01:22.724Z,100964.03
2023-03-20T00:03:49.596Z,100940.22
2023-03-20T00:06:23.648Z,100942.19
2023-03-20T00:08:52.630Z,100938.28
2023-03-20T00:11:31.297Z,100934.63
2023-03-20T00:14:11.495Z,100903.84
2023-03-20T00:16:40.630Z,100933.19
2023-03-20T00:19:08.758Z,100921.19
2023-03-20T00:21:35.519Z,100930.72
2023-03-20T00:24:02.312Z,100875.03
2023-03-20T00:26:33.457Z,100914.19
2023-03-20T00:29:00.197Z,100920.38
2023-03-20T00:31:32.834Z,100854.91
2023-03-20T00:34:01.422Z,100904.72
2023-03-20T00:36:28.454Z,100870.59
2023-03-20T00:38:58.064Z,100863.03
2023-03-20T00:41:37.526Z,100924.84
2023-03-20T00:44:13.630Z,100917.25
2023-03-20T00:46:40.669Z,100839.25
2023-03-20T00:49:12.354Z,100910.28
2023-03-20T00:51:39.905Z,100911.97
2023-03-20T00:54:13.093Z,100904.69
2023-03-20T00:56:49.407Z,100912.53
2023-03-20T00:59:21.217Z,100907.50
2023-03-20T01:01:48.072Z,100911.16
2023-03-20T01:04:17.078Z,100910.31
2023-03-20T01:06:44.506Z,100908.88
2023-03-20T01:09:11.404Z,100916.47
2023-03-20T01:11:38.759Z,100916.72
2023-03-20T01:14:06.352Z,100911.41
2023-03-20T01:16:33.128Z,100909.47
2023-03-20T01:19:00.155Z,100918.97
2023-03-20T01:21:26.966Z,100922.34
2023-03-20T01:23:53.760Z,100914.50
2023-03-20T01:26:37.592Z,100855.50
2023-03-20T01:29:05.266Z,100908.31
2023-03-20T01:31:32.075Z,100907.22
2023-03-20T01:33:58.935Z,100887.94
2023-03-20T01:36:25.920Z,100909.16
2023-03-20T01:38:57.433Z,100894.63
2023-03-20T01:41:25.552Z,100855.72
2023-03-20T01:43:52.399Z,100902.22
2023-03-20T01:46:23.812Z,100903.63
2023-03-20T01:48:50.626Z,100896.88
2023-03-20T01:51:21.440Z,100897.44
2023-03-20T01:54:08.714Z,100896.59
2023-03-20T01:56:39.309Z,100892.13
2023-03-20T01:59:20.032Z,100889.59
2023-03-20T02:01:46.844Z,100878.13
2023-03-20T02:04:13.573Z,100893.78
2023-03-20T02:06:42.006Z,100895.75
2023-03-20T02:09:08.761Z,100877.84
2023-03-20T02:11:35.582Z,100898.00
2023-03-20T02:14:02.535Z,100892.13
2023-03-20T02:16:29.381Z,100846.50
2023-03-20T02:18:56.816Z,100768.50
2023-03-20T02:21:42.549Z,100877.00
2023-03-20T02:24:26.528Z,100879.53
2023-03-20T02:26:58.921Z,100871.69
2023-03-20T02:29:42.641Z,100864.44
2023-03-20T02:32:28.198Z,100861.06
2023-03-20T02:35:31.712Z,100855.75
2023-03-20T02:38:19.614Z,100855.78
2023-03-20T02:41:01.236Z,100846.78
2023-03-20T02:43:58.289Z,100852.13
2023-03-20T02:46:34.366Z,100845.94
2023-03-20T02:49:04.226Z,100842.63
2023-03-20T02:51:36.058Z,100842.06
2023-03-20T02:54:42.277Z,100838.66
2023-03-20T02:57:13.014Z,100831.97
2023-03-20T02:59:46.843Z,100830.56
2023-03-20T03:02:16.801Z,100803.44
2023-03-20T03:04:48.950Z,100830.84
2023-03-20T03:07:16.127Z,100821.31
2023-03-20T03:09:55.488Z,100825.22
2023-03-20T03:12:23.805Z,100821.28
2023-03-20T03:14:53.027Z,100819.03
2023-03-20T03:17:21.771Z,100793.88
2023-03-20T03:19:51.124Z,100809.50
2023-03-20T03:22:18.017Z,100775.38
2023-03-20T03:24:46.641Z,100783.78
2023-03-20T03:27:46.614Z,100815.09
2023-03-20T03:30:23.275Z,100775.06
2023-03-20T03:32:51.473Z,100777.63
2023-03-20T03:35:20.818Z,100818.19
2023-03-20T03:37:50.640Z,100815.66
2023-03-20T03:40:38.900Z,100817.31
2023-03-20T03:43:42.469Z,100820.41
2023-03-20T03:46:44.456Z,100815.66
2023-03-20T03:49:15.645Z,100697.03
2023-03-20T03:51:43.489Z,100793.78
2023-03-20T03:54:25.096Z,100798.03
2023-03-20T03:56:51.822Z,100774.25
2023-03-20T03:59:31.020Z,100697.03
2023-03-20T04:01:57.761Z,100750.72
2023-03-20T04:04:24.515Z,100784.91
2023-03-20T04:06:51.513Z,100806.16
2023-03-20T04:09:18.229Z,100774.00
2023-03-20T04:11:46.579Z,100765.88
2023-03-20T04:14:13.504Z,100809.50
2023-03-20T04:16:40.595Z,100784.06
2023-03-20T04:19:07.433Z,100805.88
2023-03-20T04:21:34.235Z,100796.06
2023-03-20T04:24:01.045Z,100763.03
2023-03-20T04:26:27.773Z,100811.69
2023-03-20T04:28:54.651Z,100795.19
2023-03-20T04:31:21.506Z,100792.41
2023-03-20T04:33:48.248Z,100750.44
2023-03-20T04:36:15.258Z,100799.97
2023-03-20T04:38:42.129Z,100806.94
2023-03-20T04:41:08.954Z,100810.03
2023-03-20T04:43:36.014Z,100805.84
2023-03-20T04:46:02.885Z,100799.97
2023-03-20T04:48:29.694Z,100807.56
2023-03-20T04:50:56.561Z,100809.78
2023-03-20T04:53:25.449Z,100778.16
2023-03-20T04:55:53.587Z,100805.84
2023-03-20T04:58:20.548Z,100766.97
2023-03-20T05:00:47.345Z,100771.75
2023-03-20T05:03:14.133Z,100763.63
2023-03-20T05:05:41.073Z,100827.41
2023-03-20T05:08:07.849Z,100829.94
2023-03-20T05:10:34.563Z,100816.81
2023-03-20T05:13:01.508Z,100808.97
2023-03-20T05:15:28.233Z,100785.78
2023-03-20T05:17:55.108Z,100831.63
2023-03-20T05:20:22.124Z,100818.47
2023-03-20T05:22:50.955Z,100781.00
2023-03-20T05:25:17.927Z,100782.41
2023-03-20T05:27:46.393Z,100824.94
2023-03-20T05:30:14.253Z,100826.34
2023-03-20T05:32:42.207Z,100758.13
2023-03-20T05:35:10.437Z,100800.34
2023-03-20T05:37:37.697Z,100834.44
2023-03-20T05:40:05.039Z,100814.56
2023-03-20T05:42:31.939Z,100797.19
2023-03-20T05:44:58.675Z,100832.72
2023-03-20T05:47:26.281Z,100776.75
2023-03-20T05:49:53.292Z,100836.91
2023-03-20T05:52:20.144Z,100791.06
2023-03-20T05:54:47.598Z,100831.06
2023-03-20T05:57:14.635Z,100806.97
2023-03-20T05:59:41.434Z,100717.44
2023-03-20T06:02:08.204Z,100834.94
2023-03-20T06:04:37.594Z,100845.81
2023-03-20T06:07:04.604Z,100815.06
2023-03-20T06:09:31.789Z,100807.53
2023-03-20T06:11:58.660Z,100820.31
2023-03-20T06:14:25.766Z,100837.75
2023-03-20T06:16:54.209Z,100838.00
2023-03-20T06:19:22.128Z,100739.44
2023-03-20T06:21:49.401Z,100799.84
2023-03-20T06:24:16.341Z,100790.88
2023-03-20T06:26:43.397Z,100809.13
2023-03-20T06:29:10.250Z,100833.50
2023-03-20T06:31:37.105Z,100841.06
2023-03-20T06:34:05.000Z,100841.88
2023-03-20T06:36:32.356Z,100773.84
2023-03-20T06:38:59.712Z,100795.34
2023-03-20T06:41:34.235Z,100767.91
2023-03-20T06:44:01.638Z,100811.63
2023-03-20T06:46:28.646Z,100809.38
2023-03-20T06:48:56.057Z,100842.94
2023-03-20T06:51:22.824Z,100781.31
2023-03-20T06:53:49.722Z,100846.00
2023-03-20T06:56:17.007Z,100851.34
2023-03-20T06:58:43.843Z,100858.13
2023-03-20T07:01:16.059Z,100804.16
2023-03-20T07:03:43.232Z,100868.78
2023-03-20T07:06:12.327Z,100855.09
2023-03-20T07:08:39.775Z,100873.59
2023-03-20T07:11:06.895Z,100885.91
2023-03-20T07:13:33.750Z,100892.66
2023-03-20T07:16:05.301Z,100898.53
2023-03-20T07:18:32.442Z,100838.06
2023-03-20T07:21:02.434Z,100863.56
2023-03-20T07:23:34.660Z,100858.25
2023-03-20T07:26:01.456Z,100905.81
2023-03-20T07:28:28.300Z,100868.91
2023-03-20T07:30:55.843Z,100841.78
2023-03-20T07:33:22.638Z,100903.59
2023-03-20T07:35:53.536Z,100901.38
2023-03-20T07:38:21.364Z,100906.69
2023-03-20T07:40:49.136Z,100907.25
2023-03-20T07:43:16.855Z,100897.44
2023-03-20T07:45:43.772Z,100910.84
2023-03-20T07:48:10.618Z,100902.97
2023-03-20T07:50:37.525Z,100900.41
2023-03-20T07:53:04.459Z,100893.88
2023-03-20T07:55:31.321Z,100895.34
2023-03-20T07:57:58.057Z,100896.91
2023-03-20T08:00:26.777Z,100904.03
2023-03-20T08:02:57.245Z,100897.06
2023-03-20T08:05:24.559Z,100865.63
2023-03-20T08:07:51.753Z,100899.22
2023-03-20T08:10:18.748Z,100895.47
2023-03-20T08:12:45.836Z,100903.19
2023-03-20T08:15:12.841Z,100857.81
2023-03-20T08:17:43.645Z,100889.91
2023-03-20T08:20:11.286Z,100899.59
2023-03-20T08:22:38.137Z,100883.25
2023-03-20T08:25:05.241Z,100923.53
2023-03-20T08:27:31.991Z,100927.09
2023-03-20T08:29:58.985Z,100934.09
2023-03-20T08:32:26.726Z,100935.13
2023-03-20T08:34:55.232Z,100931.00
2023-03-20T08:37:22.456Z,100928.22
2023-03-20T08:39:49.420Z,100914.47
2023-03-20T08:42:16.157Z,100925.75
2023-03-20T08:44:43.143Z,100903.59
2023-03-20T08:47:11.360Z,100871.53
2023-03-20T08:49:38.203Z,100886.84
2023-03-20T08:52:05.001Z,100928.56
2023-03-20T08:54:31.987Z,100895.75
2023-03-20T08:56:58.882Z,100931.63
2023-03-20T08:59:25.690Z,100896.81
2023-03-20T09:01:52.485Z,100920.06
2023-03-20T09:04:19.383Z,100941.50
2023-03-20T09:06:46.178Z,100919.16
2023-03-20T09:09:15.987Z,100934.75
2023-03-20T09:11:43.059Z,100916.06
2023-03-20T09:14:09.886Z,100914.81
2023-03-20T09:16:36.752Z,100825.44
2023-03-20T09:19:04.034Z,100926.72
2023-03-20T09:21:30.862Z,100939.41
2023-03-20T09:23:57.624Z,100937.22
2023-03-20T09:26:24.409Z,100936.47
2023-03-20T09:28:51.128Z,100923.81
2023-03-20T09:31:18.221Z,100936.41
2023-03-20T09:33:45.073Z,100892.25
2023-03-20T09:36:12.100Z,100926.22
2023-03-20T09:38:42.047Z,100873.91
2023-03-20T09:41:20.716Z,100888.03
2023-03-20T09:44:25.337Z,100926.00
2023-03-20T09:47:20.744Z,100885.34
2023-03-20T09:50:13.143Z,100923.69
2023-03-20T09:52:58.291Z,100924.41
2023-03-20T09:55:31.136Z,100897.75
2023-03-20T09:57:59.514Z,100841.97
2023-03-20T10:00:28.488Z,100913.53
2023-03-20T10:03:06.376Z,100897.88
2023-03-20T10:05:44.398Z,100923.50
2023-03-20T10:08:17.238Z,100918.50
2023-03-20T10:10:57.549Z,100924.91
2023-03-20T10:13:30.365Z,100924.59
2023-03-20T10:16:15.046Z,100923.47
2023-03-20T10:18:46.965Z,100839.44
2023-03-20T10:21:18.934Z,100846.44
2023-03-20T10:23:53.378Z,100927.78
2023-03-20T10:26:22.043Z,100907.31
2023-03-20T10:28:48.741Z,100924.66
2023-03-20T10:31:28.872Z,100916.78
2023-03-20T10:34:01.653Z,100910.28
2023-03-20T10:36:53.332Z,100910.53
2023-03-20T10:39:29.578Z,100909.09
2023-03-20T10:42:02.293Z,100839.16
2023-03-20T10:44:34.107Z,100879.06
2023-03-20T10:47:02.153Z,100880.44
2023-03-20T10:49:32.745Z,100909.38
2023-03-20T10:52:02.206Z,100905.16
2023-03-20T10:54:31.101Z,100920.81
2023-03-20T10:56:59.866Z,100874.75
2023-03-20T10:59:30.357Z,100909.44
2023-03-20T11:01:57.069Z,100912.81
2023-03-20T11:04:24.102Z,100901.91
2023-03-20T11:07:08.059Z,100883.97
2023-03-20T11:09:35.043Z,100900.31
2023-03-20T11:12:02.264Z,100897.28
2023-03-20T11:14:38.025Z,100860.25
2023-03-20T11:17:05.497Z,100890.88
2023-03-20T11:19:34.789Z,100892.34
2023-03-20T11:22:07.343Z,100891.50
2023-03-20T11:24:45.140Z,100864.47
2023-03-20T11:27:19.466Z,100883.09
2023-03-20T11:29:49.783Z,100881.03
2023-03-20T11:32:39.946Z,100887.66
2023-03-20T11:35:25.208Z,100857.38
2023-03-20T11:37:53.827Z,100887.91
2023-03-20T11:40:21.254Z,100886.84
2023-03-20T11:43:00.951Z,100821.13
2023-03-20T11:45:48.401Z,100865.47
2023-03-20T11:48:19.009Z,100883.25
2023-03-20T11:51:08.776Z,100858.50
2023-03-20T11:53:39.683Z,100838.03
2023-03-20T11:56:26.648Z,100878.47
2023-03-20T11:58:53.372Z,100889.09
2023-03-20T12:01:21.309Z,100849.34
2023-03-20T12:04:11.594Z,100882.53
2023-03-20T12:06:41.514Z,100879.22
2023-03-20T12:09:37.982Z,100878.91
2023-03-20T12:12:07.844Z,100869.59
2023-03-20T12:15:05.851Z,100869.47
2023-03-20T12:18:16.921Z,100889.66
2023-03-20T12:21:02.586Z,100888.63
2023-03-20T12:23:33.587Z,100863.66
2023-03-20T12:26:04.472Z,100881.91
2023-03-20T12:28:55.089Z,100879.94
2023-03-20T12:31:25.047Z,100885.75
2023-03-20T12:33:54.776Z,100873.41
2023-03-20T12:36:33.501Z,100879.97
2023-03-20T12:39:02.454Z,100857.16
2023-03-20T12:41:31.082Z,100863.63
2023-03-20T12:44:03.479Z,100881.69
2023-03-20T12:46:40.625Z,100870.09
2023-03-20T12:49:15.569Z,100868.03
2023-03-20T12:52:25.885Z,100863.06
2023-03-20T12:55:01.930Z,100863.06
2023-03-20T12:57:36.398Z,100854.84
2023-03-20T13:00:17.431Z,100854.31
2023-03-20T13:03:03.175Z,100857.06
2023-03-20T13:05:42.211Z,100865.25
2023-03-20T13:08:14.653Z,100857.78
2023-03-20T13:10:52.119Z,100851.13
2023-03-20T13:13:26.802Z,100807.19
2023-03-20T13:15:59.718Z,100846.19
2023-03-20T13:18:45.351Z,100840.56
2023-03-20T13:21:16.108Z,100825.06
2023-03-20T13:24:20.502Z,100796.47
2023-03-20T13:26:53.496Z,100846.66
2023-03-20T13:29:24.664Z,100832.13
2023-03-20T13:32:22.727Z,100820.91
2023-03-20T13:35:35.361Z,100815.88
2023-03-20T13:38:24.662Z,100818.25
2023-03-20T13:40:56.044Z,100807.75
2023-03-20T13:43:33.945Z,100800.84
2023-03-20T13:46:28.718Z,100776.97
2023-03-20T13:48:56.252Z,100770.94
2023-03-20T13:51:36.099Z,100791.50
2023-03-20T13:54:27.411Z,100793.06
2023-03-20T13:56:58.199Z,100756.19
2023-03-20T13:59:46.699Z,100786.66
2023-03-20T14:02:40.070Z,100779.00
2023-03-20T14:05:14.787Z,100782.75
2023-03-20T14:07:44.038Z,100779.41
2023-03-20T14:10:23.316Z,100745.81
2023-03-20T14:12:50.076Z,100779.66
2023-03-20T14:15:16.795Z,100743.69
2023-03-20T14:17:44.292Z,100763.50
2023-03-20T14:20:24.536Z,100749.44
2023-03-20T14:22:51.452Z,100738.22
2023-03-20T14:25:19.646Z,100773.84
2023-03-20T14:28:13.048Z,100750.25
2023-03-20T14:30:39.817Z,100786.97
2023-03-20T14:33:20.698Z,100783.34
2023-03-20T14:35:50.903Z,100778.88
2023-03-20T14:38:21.062Z,100770.59
2023-03-20T14:40:52.708Z,100745.97
2023-03-20T14:43:43.113Z,100768.78
2023-03-20T14:46:22.575Z,100771.78
2023-03-20T14:48:51.654Z,100775.66
2023-03-20T14:51:31.162Z,100775.50
2023-03-20T14:53:58.419Z,100781.84
2023-03-20T14:56:32.741Z,100776.41
2023-03-20T14:59:05.930Z,100786.13
2023-03-20T15:01:38.949Z,100776.50
2023-03-20T15:04:28.726Z,100687.16
2023-03-20T15:07:18.508Z,100776.69
2023-03-20T15:09:47.265Z,100672.38
2023-03-20T15:12:15.348Z,100781.72
2023-03-20T15:14:53.556Z,100775.06
2023-03-20T15:17:41.849Z,100764.88
2023-03-20T15:20:29.620Z,100739.28
2023-03-20T15:23:01.036Z,100702.00
2023-03-20T15:25:47.315Z,100721.84
2023-03-20T15:28:24.345Z,100696.19
2023-03-20T15:30:53.682Z,100758.44
2023-03-20T15:33:25.466Z,100737.78
2023-03-20T15:35:52.918Z,100732.97
2023-03-20T15:38:19.897Z,100754.78
2023-03-20T15:40:51.410Z,100656.94
2023-03-20T15:43:25.059Z,100743.78
2023-03-20T15:46:14.165Z,100706.19
2023-03-20T15:48:42.108Z,100755.78
2023-03-20T15:51:09.343Z,100722.66
2023-03-20T15:53:37.969Z,100749.09
2023-03-20T15:56:27.596Z,100725.66
2023-03-20T15:58:55.282Z,100728.31
2023-03-20T16:01:23.201Z,100763.44
2023-03-20T16:03:50.626Z,100722.50
2023-03-20T16:06:21.936Z,100718.84
2023-03-20T16:09:03.165Z,100735.47
2023-03-20T16:11:40.591Z,100737.13
2023-03-20T16:14:10.523Z,100645.09
2023-03-20T16:16:37.793Z,100737.63
2023-03-20T16:19:06.261Z,100650.91
2023-03-20T16:21:35.875Z,100745.66
2023-03-20T16:24:05.312Z,100747.28
2023-03-20T16:26:35.429Z,100751.63
2023-03-20T16:29:05.464Z,100726.25
2023-03-20T16:31:34.308Z,100759.88
2023-03-20T16:34:02.381Z,100732.91
2023-03-20T16:36:30.942Z,100711.38
2023-03-20T16:39:11.047Z,100742.88
2023-03-20T16:41:39.394Z,100743.69
2023-03-20T16:44:17.506Z,100736.38
2023-03-20T16:47:04.985Z,100751.00
2023-03-20T16:49:51.155Z,100728.34
2023-03-20T16:52:18.076Z,100699.66
2023-03-20T16:54:44.986Z,100741.97
2023-03-20T16:57:16.002Z,100746.81
2023-03-20T16:59:42.929Z,100755.81
2023-03-20T17:02:30.466Z,100723.16
2023-03-20T17:05:01.829Z,100761.78
2023-03-20T17:07:30.781Z,100747.28
2023-03-20T17:10:08.146Z,100763.91
2023-03-20T17:12:37.196Z,100755.00
2023-03-20T17:15:04.350Z,100672.63
2023-03-20T17:17:31.192Z,100748.97
2023-03-20T17:19:57.937Z,100724.72
2023-03-20T17:22:25.738Z,100749.53
2023-03-20T17:24:52.859Z,100757.13
2023-03-20T17:27:19.806Z,100756.09
2023-03-20T17:29:46.944Z,100722.78
2023-03-20T17:32:15.875Z,100692.63
2023-03-20T17:34:43.441Z,100758.47
2023-03-20T17:37:14.915Z,100727.19
2023-03-20T17:39:41.827Z,100716.84
2023-03-20T17:42:19.103Z,100674.47
2023-03-20T17:44:46.827Z,100756.44
2023-03-20T17:47:21.232Z,100768.31
2023-03-20T17:49:48.535Z,100761.59
2023-03-20T17:52:18.578Z,100763.69
2023-03-20T17:54:45.641Z,100763.09
2023-03-20T17:57:37.350Z,100737.78
2023-03-20T18:00:09.019Z,100744.25
2023-03-20T18:02:35.780Z,100770.56
2023-03-20T18:05:02.630Z,100764.00
2023-03-20T18:07:29.518Z,100762.19
2023-03-20T18:09:56.327Z,100772.50
2023-03-20T18:12:23.222Z,100782.22
2023-03-20T18:14:49.956Z,100752.50
2023-03-20T18:17:16.700Z,100691.28
2023-03-20T18:19:44.203Z,100776.94
2023-03-20T18:22:11.511Z,100777.03
2023-03-20T18:24:44.106Z,100758.81
2023-03-20T18:27:12.489Z,100774.75
2023-03-20T18:29:39.234Z,100745.97
2023-03-20T18:32:06.193Z,100794.06
2023-03-20T18:34:33.563Z,100788.84
2023-03-20T18:37:00.558Z,100792.47
2023-03-20T18:39:27.636Z,100751.94
2023-03-20T18:41:54.674Z,100779.81
2023-03-20T18:44:22.033Z,100712.66
2023-03-20T18:46:48.951Z,100796.06
2023-03-20T18:49:16.946Z,100782.16
2023-03-20T18:51:44.479Z,100773.66
2023-03-20T18:54:11.604Z,100793.28
2023-03-20T18:56:38.603Z,100801.75
2023-03-20T18:59:07.883Z,100795.03
2023-03-20T19:01:35.408Z,100695.69
2023-03-20T19:04:02.485Z,100795.19
2023-03-20T19:06:32.393Z,100798.94
2023-03-20T19:08:59.325Z,100726.84
2023-03-20T19:11:26.650Z,100754.53
2023-03-20T19:13:53.704Z,100792.44
2023-03-20T19:16:30.063Z,100791.88
2023-03-20T19:18:59.103Z,100777.53
2023-03-20T19:21:27.478Z,100787.41
2023-03-20T19:23:55.478Z,100805.03
2023-03-20T19:26:24.576Z,100810.44
2023-03-20T19:28:52.968Z,100807.94
2023-03-20T19:31:20.194Z,100764.47
2023-03-20T19:33:47.020Z,100811.38
2023-03-20T19:36:28.145Z,100814.09
2023-03-20T19:38:55.376Z,100778.16
2023-03-20T19:41:22.199Z,100799.88
2023-03-20T19:43:53.666Z,100819.66
2023-03-20T19:46:38.503Z,100777.53
2023-03-20T19:49:06.835Z,100774.75
2023-03-20T19:51:35.255Z,100781.47
2023-03-20T19:54:02.358Z,100776.16
2023-03-20T19:56:29.178Z,100784.88
2023-03-20T19:58:56.501Z,100781.25
2023-03-20T20:01:24.509Z,100801.84
2023-03-20T20:03:53.815Z,100830.69
2023-03-20T20:06:22.305Z,100825.66
2023-03-20T20:08:50.016Z,100834.00
2023-03-20T20:11:18.190Z,100827.88
2023-03-20T20:14:07.067Z,100835.75
2023-03-20T20:16:37.098Z,100828.16
2023-03-20T20:19:04.583Z,100789.44
2023-03-20T20:24:18.376Z,100832.72
2023-03-20T20:26:54.363Z,100830.72
2023-03-20T20:29:22.408Z,100773.41
2023-03-20T20:31:49.246Z,100829.72
2023-03-20T20:39:50.482Z,100799.78
2023-03-20T20:42:17.723Z,100841.06
2023-03-20T20:44:44.709Z,100806.22
2023-03-20T20:47:11.725Z,100840.88
2023-03-20T20:49:41.490Z,100847.97
2023-03-20T20:52:08.108Z,100840.41
2023-03-20T20:54:34.898Z,100851.41
2023-03-20T20:57:01.919Z,100858.19
2023-03-20T20:59:28.813Z,100857.63
2023-03-20T21:01:55.858Z,100863.25
2023-03-20T21:04:22.769Z,100806.28
2023-03-20T21:09:36.886Z,100852.63
2023-03-20T21:12:04.234Z,100842.25
2023-03-20T21:14:31.291Z,100750.16
2023-03-20T21:17:01.465Z,100828.88
2023-03-20T21:19:29.670Z,100841.69
2023-03-20T21:21:56.547Z,100833.72
2023-03-20T21:24:32.421Z,100846.84
2023-03-20T21:27:00.408Z,100822.00
2023-03-20T21:29:27.438Z,100841.59
2023-03-20T21:31:54.630Z,100850.09
2023-03-20T21:34:21.445Z,100820.81
2023-03-20T21:36:49.246Z,100847.41
2023-03-20T21:39:16.907Z,100822.94
2023-03-20T21:41:43.976Z,100855.84
2023-03-20T21:44:17.117Z,100835.81
2023-03-20T21:47:39.839Z,100877.69
2023-03-20T21:58:33.173Z,100837.53
2023-03-20T22:04:02.898Z,100832.31
2023-03-20T22:12:30.264Z,100883.69
2023-03-20T22:17:59.638Z,100869.09
2023-03-20T22:23:43.268Z,100867.91
2023-03-20T22:31:53.813Z,100875.13
2023-03-20T22:40:43.156Z,100856.28
2023-03-20T22:45:14.535Z,100864.28
2023-03-20T22:47:41.521Z,100869.84
2023-03-20T22:50:09.054Z,100864.22
2023-03-20T22:52:48.079Z,100851.88
2023-03-20T22:55:16.934Z,100865.06
2023-03-20T22:57:56.117Z,100878.81
2023-03-20T23:00:30.781Z,100827.66
2023-03-20T23:03:12.848Z,100874.25
2023-03-20T23:05:42.533Z,100863.97
2023-03-20T23:08:09.435Z,100878.22
2023-03-20T23:10:38.117Z,100865.44
2023-03-20T23:13:04.997Z,100869.31
2023-03-20T23:15:32.032Z,100854.53
2023-03-20T23:17:59.986Z,100836.94
2023-03-20T23:20:27.214Z,100881.00
2023-03-20T23:22:54.119Z,100878.22
2023-03-20T23:25:37.863Z,100829.03
2023-03-20T23:28:06.739Z,100751.78
2023-03-20T23:30:44.336Z,100831.59
2023-03-20T23:33:13.281Z,100876.22
2023-03-20T23:35:40.069Z,100858.88
2023-03-20T23:38:06.813Z,100843.53
2023-03-20T23:40:33.762Z,100811.09
2023-03-20T23:43:00.607Z,100841.25
2023-03-20T23:45:27.391Z,100834.56
2023-03-20T23:47:54.455Z,100866.03
2023-03-20T23:50:31.881Z,100860.75
2023-03-20T23:53:17.456Z,100832.53
2023-03-20T23:55:46.741Z,100876.41
2023-03-20T23:58:13.679Z,100853.59
